Time;durP1;ratioP1;P1;durP2;ratioP2;P2;SDS_P1;SDS_P2;PMS_P1;PMS_P2;Temp;Humidity;BMP_temperature;BMP_pressure;BME280_temperature;BME280_humidity;BME280_pressure;Samples;Min_cycle;Max_cycle;Signal;HPM_P1;HPM_P2
2021/01/22 00:01:05;;;;;;;95.38;41.50;;;;;;;-0.89;81.85;97708.30;2286126;78;21268;-64
2021/01/22 00:04:06;;;;;;;94.75;46.35;;;;;;;-0.89;81.85;97705.30;2308000;76;21713;-65
2021/01/22 00:07:07;;;;;;;97.97;44.80;;;;;;;-0.88;81.93;97711.28;2317968;76;21266;-66
2021/01/22 00:10:08;;;;;;;87.15;40.08;;;;;;;-0.87;81.91;97716.38;2284479;78;21281;-64
2021/01/22 00:13:09;;;;;;;90.90;44.95;;;;;;;-0.84;81.91;97712.03;2268873;77;21257;-66
2021/01/22 00:16:11;;;;;;;87.25;39.75;;;;;;;-0.83;81.84;97708.12;2251666;77;21134;-65
2021/01/22 00:19:12;;;;;;;89.10;39.87;;;;;;;-0.84;82.20;97702.56;2271077;78;21728;-65
2021/01/22 00:22:13;;;;;;;92.05;41.42;;;;;;;-0.82;81.97;97702.52;2316248;77;21258;-67
2021/01/22 00:25:15;;;;;;;90.45;40.08;;;;;;;-0.78;82.16;97697.20;2261666;78;21287;-66
2021/01/22 00:28:16;;;;;;;83.55;38.83;;;;;;;-0.78;81.90;97701.52;2271101;77;21146;-67
2021/01/22 00:31:17;;;;;;;81.70;37.08;;;;;;;-0.74;82.17;97703.94;2260052;77;21280;-67
2021/01/22 00:34:18;;;;;;;90.07;39.50;;;;;;;-0.72;81.83;97702.17;2259857;77;21256;-67
2021/01/22 00:37:19;;;;;;;89.20;37.25;;;;;;;-0.69;81.90;97692.19;2263907;77;21724;-67
2021/01/22 00:40:20;;;;;;;80.87;36.38;;;;;;;-0.68;82.02;97688.73;2283705;77;21166;-66
2021/01/22 00:43:21;;;;;;;80.05;34.92;;;;;;;-0.68;82.03;97690.48;2257245;78;21284;-67
2021/01/22 00:46:23;;;;;;;81.92;38.13;;;;;;;-0.64;82.06;97687.73;2316093;76;21270;-67
2021/01/22 00:49:24;;;;;;;81.72;37.17;;;;;;;-0.60;82.01;97693.18;2270147;78;21288;-67
2021/01/22 00:52:25;;;;;;;78.90;36.28;;;;;;;-0.56;82.00;97684.89;2274094;77;21281;-68
2021/01/22 00:55:26;;;;;;;73.07;33.20;;;;;;;-0.53;81.80;97688.22;2262276;77;21288;-63
2021/01/22 00:58:27;;;;;;;87.57;37.75;;;;;;;-0.52;81.97;97685.18;2257132;77;21245;-63
2021/01/22 01:01:28;;;;;;;86.72;39.78;;;;;;;-0.54;81.86;97680.08;2282104;77;21289;-64
2021/01/22 01:04:30;;;;;;;86.78;40.10;;;;;;;-0.54;81.91;97670.23;2250875;77;21284;-64
2021/01/22 01:07:31;;;;;;;79.58;35.90;;;;;;;-0.55;81.94;97668.55;2262286;77;21304;-63
2021/01/22 01:10:32;;;;;;;83.45;38.42;;;;;;;-0.54;81.97;97660.77;2273586;77;21281;-63
2021/01/22 01:13:33;;;;;;;79.27;36.30;;;;;;;-0.53;81.93;97652.61;2306513;76;21268;-63
2021/01/22 01:16:35;;;;;;;78.05;34.38;;;;;;;-0.54;81.85;97647.05;2281243;77;21280;-63
2021/01/22 01:19:36;;;;;;;77.95;34.33;;;;;;;-0.58;82.06;97639.87;2285139;77;21269;-63
2021/01/22 01:22:37;;;;;;;82.95;35.92;;;;;;;-0.62;82.03;97642.61;2279035;77;21698;-63
2021/01/22 01:25:38;;;;;;;72.85;32.98;;;;;;;-0.63;82.12;97633.19;2255227;77;21376;-65
2021/01/22 01:28:40;;;;;;;76.62;34.00;;;;;;;-0.62;82.44;97632.30;2280287;77;21264;-64
2021/01/22 01:31:44;;;;;;;67.37;31.73;;;;;;;-0.64;82.73;97633.65;2268188;77;21578;-64
2021/01/22 01:34:45;;;;;;;73.30;33.38;;;;;;;-0.66;82.20;97623.86;2273059;77;21163;-64
2021/01/22 01:37:47;;;;;;;73.67;34.67;;;;;;;-0.65;82.60;97611.81;2260171;77;21546;-63
2021/01/22 01:40:48;;;;;;;78.40;31.85;;;;;;;-0.65;82.37;97602.80;2267352;77;21720;-64
2021/01/22 01:43:50;;;;;;;68.92;32.35;;;;;;;-0.66;82.34;97599.82;2265348;77;21269;-64
2021/01/22 01:46:51;;;;;;;73.07;33.83;;;;;;;-0.67;82.36;97602.86;2317660;76;21285;-65
2021/01/22 01:49:52;;;;;;;73.20;31.90;;;;;;;-0.66;82.31;97611.41;2258628;78;21264;-64
2021/01/22 01:52:53;;;;;;;71.97;32.73;;;;;;;-0.67;82.20;97614.91;2284263;77;21147;-63
2021/01/22 01:55:55;;;;;;;73.62;31.75;;;;;;;-0.70;82.28;97613.27;2274545;77;21131;-64
2021/01/22 01:58:56;;;;;;;69.62;32.35;;;;;;;-0.70;82.17;97605.55;2285332;77;21304;-65
2021/01/22 02:01:57;;;;;;;72.05;31.05;;;;;;;-0.70;82.06;97599.11;2284092;77;21265;-67
2021/01/22 02:04:58;;;;;;;73.02;31.93;;;;;;;-0.71;82.45;97599.53;2268245;78;21276;-67
2021/01/22 02:08:00;;;;;;;65.60;29.57;;;;;;;-0.78;82.31;97590.80;2238649;77;21707;-67
2021/01/22 02:11:01;;;;;;;74.60;32.10;;;;;;;-0.80;82.33;97587.45;2228383;78;21157;-63
2021/01/22 02:14:02;;;;;;;69.65;30.65;;;;;;;-0.79;82.40;97582.67;2260089;77;21153;-63
2021/01/22 02:17:03;;;;;;;66.77;30.02;;;;;;;-0.81;82.61;97578.03;2277534;77;21265;-63
2021/01/22 02:20:04;;;;;;;66.77;30.00;;;;;;;-0.84;83.11;97571.71;2257657;78;21133;-64
2021/01/22 02:23:05;;;;;;;66.95;29.90;;;;;;;-0.90;82.83;97571.02;2277767;77;21256;-63
2021/01/22 02:26:07;;;;;;;67.70;29.60;;;;;;;-0.92;82.92;97568.95;2261801;77;21288;-67
2021/01/22 02:29:08;;;;;;;65.67;29.55;;;;;;;-0.89;83.25;97569.27;2269808;77;21682;-68
2021/01/22 02:32:09;;;;;;;61.77;27.95;;;;;;;-0.85;82.92;97568.28;2293270;76;21253;-67
2021/01/22 02:35:10;;;;;;;69.45;29.57;;;;;;;-0.84;82.80;97570.42;2280621;77;21316;-63
2021/01/22 02:38:11;;;;;;;66.40;30.00;;;;;;;-0.84;82.92;97572.54;2261581;77;21288;-65
2021/01/22 02:41:14;;;;;;;66.30;28.20;;;;;;;-0.81;82.95;97565.98;2268368;77;21728;-63
2021/01/22 02:44:15;;;;;;;67.58;27.73;;;;;;;-0.78;82.97;97547.02;2267837;77;21312;-64
2021/01/22 02:47:16;;;;;;;60.92;27.27;;;;;;;-0.73;83.15;97545.14;2270676;77;21281;-63
2021/01/22 02:50:17;;;;;;;61.08;27.90;;;;;;;-0.68;83.14;97541.10;2282399;77;21260;-63
2021/01/22 02:53:19;;;;;;;62.83;27.00;;;;;;;-0.64;83.15;97540.10;2281884;77;21142;-63
2021/01/22 02:56:20;;;;;;;60.92;25.57;;;;;;;-0.61;83.32;97530.97;2270955;77;21265;-63
2021/01/22 02:59:21;;;;;;;60.28;26.75;;;;;;;-0.59;83.49;97515.86;2267613;78;21257;-64
2021/01/22 03:02:23;;;;;;;60.88;27.13;;;;;;;-0.56;83.45;97506.73;2258086;77;21269;-63
2021/01/22 03:05:24;;;;;;;60.45;26.52;;;;;;;-0.51;83.25;97502.68;2236657;77;21716;-63
2021/01/22 03:08:25;;;;;;;55.78;24.35;;;;;;;-0.46;83.15;97503.36;2246954;77;21292;-63
2021/01/22 03:11:26;;;;;;;55.60;25.95;;;;;;;-0.38;83.19;97500.48;2316114;76;21155;-63
2021/01/22 03:14:29;;;;;;;60.73;25.32;;;;;;;-0.33;82.99;97501.16;2309962;76;21700;-64
2021/01/22 03:17:31;;;;;;;57.43;24.72;;;;;;;-0.30;82.94;97507.91;2252391;78;21269;-64
2021/01/22 03:20:33;;;;;;;58.13;25.55;;;;;;;-0.25;82.98;97506.84;2265819;77;21729;-63
2021/01/22 03:23:34;;;;;;;54.10;24.63;;;;;;;-0.22;82.80;97507.17;2260186;77;21284;-64
2021/01/22 03:26:35;;;;;;;53.83;23.98;;;;;;;-0.18;82.90;97501.01;2266482;77;21360;-64
2021/01/22 03:29:36;;;;;;;56.08;23.32;;;;;;;-0.15;82.99;97485.88;2274934;77;21269;-63
2021/01/22 03:32:37;;;;;;;52.75;22.42;;;;;;;-0.13;83.12;97487.51;2250869;77;21351;-64
2021/01/22 03:35:38;;;;;;;50.58;20.25;;;;;;;-0.09;83.35;97487.75;2273444;77;21273;-64
2021/01/22 03:38:39;;;;;;;45.03;20.48;;;;;;;-0.06;83.15;97486.37;2272025;77;21363;-67
2021/01/22 03:41:40;;;;;;;50.25;21.73;;;;;;;-0.02;83.10;97482.74;2268073;77;21701;-64
2021/01/22 03:44:41;;;;;;;46.05;20.05;;;;;;;0.05;83.05;97484.64;2261881;77;21323;-64
2021/01/22 03:47:42;;;;;;;48.48;19.55;;;;;;;0.10;83.08;97485.30;2257373;77;21269;-64
2021/01/22 03:50:44;;;;;;;45.78;19.65;;;;;;;0.13;83.10;97481.73;2256485;77;21313;-64
2021/01/22 03:53:45;;;;;;;40.03;17.35;;;;;;;0.15;83.08;97476.91;2290344;77;21713;-64
2021/01/22 03:56:46;;;;;;;48.78;18.12;;;;;;;0.18;83.26;97481.58;2316351;77;21262;-63
2021/01/22 03:59:47;;;;;;;46.73;18.60;;;;;;;0.22;83.09;97482.67;2277256;77;21267;-63
2021/01/22 04:02:48;;;;;;;42.70;17.57;;;;;;;0.26;83.15;97470.47;2276597;77;21748;-64
2021/01/22 04:05:49;;;;;;;40.65;17.25;;;;;;;0.25;83.17;97458.04;2279945;78;21269;-65
2021/01/22 04:08:51;;;;;;;42.80;16.32;;;;;;;0.28;83.26;97457.08;2315990;77;21266;-64
2021/01/22 04:11:52;;;;;;;41.53;17.07;;;;;;;0.30;83.14;97450.11;2232221;78;21098;-64
2021/01/22 04:14:53;;;;;;;38.33;15.70;;;;;;;0.33;83.06;97449.97;2261656;77;21265;-64
2021/01/22 04:17:55;;;;;;;43.78;17.17;;;;;;;0.34;83.05;97443.92;2275811;77;21134;-63
2021/01/22 04:20:56;;;;;;;39.35;15.50;;;;;;;0.36;82.98;97442.56;2269240;78;21288;-64
2021/01/22 04:23:57;;;;;;;35.48;14.35;;;;;;;0.37;82.92;97439.09;2260176;77;21286;-63
2021/01/22 04:26:58;;;;;;;40.40;15.63;;;;;;;0.38;82.94;97434.33;2269334;77;21270;-63
2021/01/22 04:29:59;;;;;;;37.60;15.90;;;;;;;0.40;82.93;97435.91;2256608;77;21305;-64
2021/01/22 04:33:00;;;;;;;38.80;15.78;;;;;;;0.44;83.20;97429.73;2311539;76;21277;-64
2021/01/22 04:36:01;;;;;;;40.03;15.45;;;;;;;0.46;82.89;97434.82;2304945;76;21258;-64
2021/01/22 04:39:03;;;;;;;35.68;13.72;;;;;;;0.46;82.74;97422.78;2255444;78;21590;-63
2021/01/22 04:42:04;;;;;;;35.58;14.20;;;;;;;0.48;82.76;97415.80;2268010;77;21293;-64
2021/01/22 04:45:05;;;;;;;42.65;15.43;;;;;;;0.51;82.80;97409.67;2246103;78;21129;-63
2021/01/22 04:48:06;;;;;;;42.13;15.78;;;;;;;0.53;82.67;97413.02;2278864;77;21155;-63
2021/01/22 04:51:08;;;;;;;48.13;19.55;;;;;;;0.57;82.68;97405.53;2265147;78;21276;-63
2021/01/22 04:54:09;;;;;;;41.92;17.73;;;;;;;0.58;82.62;97407.68;2270722;77;21150;-64
2021/01/22 04:57:10;;;;;;;40.45;14.28;;;;;;;0.60;82.59;97404.56;2281779;78;21285;-64
2021/01/22 05:00:11;;;;;;;40.67;14.28;;;;;;;0.63;82.76;97400.13;2272544;77;21760;-64
2021/01/22 05:03:13;;;;;;;33.78;13.35;;;;;;;0.65;82.64;97397.02;2279876;78;21149;-64
2021/01/22 05:06:15;;;;;;;36.38;13.90;;;;;;;0.68;82.66;97403.79;2310875;76;21257;-64
2021/01/22 05:09:16;;;;;;;41.63;13.58;;;;;;;0.69;82.60;97396.44;2263914;77;21272;-64
2021/01/22 05:12:17;;;;;;;33.60;12.37;;;;;;;0.71;82.64;97389.45;2253089;77;21245;-65
2021/01/22 05:15:18;;;;;;;33.80;12.98;;;;;;;0.74;82.52;97390.61;2266511;77;21275;-65
2021/01/22 05:18:19;;;;;;;34.50;12.15;;;;;;;0.76;82.56;97390.53;2283238;77;21590;-64
2021/01/22 05:21:20;;;;;;;35.63;12.85;;;;;;;0.78;82.52;97397.77;2279503;78;21277;-63
2021/01/22 05:24:21;;;;;;;33.73;12.95;;;;;;;0.79;82.45;97393.84;2267306;77;21279;-63
2021/01/22 05:27:22;;;;;;;33.90;12.63;;;;;;;0.77;82.40;97384.02;2264552;77;21150;-64
2021/01/22 05:30:24;;;;;;;40.17;13.28;;;;;;;0.76;82.65;97387.52;2285645;77;21697;-64
2021/01/22 05:33:26;;;;;;;36.48;14.30;;;;;;;0.77;82.56;97390.93;2261003;77;21275;-63
2021/01/22 05:36:27;;;;;;;36.00;13.98;;;;;;;0.78;82.53;97384.87;2250885;77;21249;-65
2021/01/22 05:39:28;;;;;;;34.03;12.43;;;;;;;0.79;82.57;97374.91;2264083;77;21280;-66
2021/01/22 05:42:30;;;;;;;32.58;12.18;;;;;;;0.79;82.59;97376.20;2262149;77;21268;-64
2021/01/22 05:45:31;;;;;;;30.12;12.40;;;;;;;0.78;82.54;97372.79;2247238;78;21182;-64
2021/01/22 05:48:32;;;;;;;33.33;10.93;;;;;;;0.78;82.59;97367.62;2277081;77;21706;-67
2021/01/22 05:51:33;;;;;;;30.00;11.35;;;;;;;0.78;82.79;97362.47;2272250;77;21277;-67
2021/01/22 05:54:34;;;;;;;32.00;11.45;;;;;;;0.81;82.68;97371.36;2313017;76;21266;-63
2021/01/22 05:57:35;;;;;;;31.45;11.25;;;;;;;0.80;82.90;97361.93;2273203;78;21138;-63
2021/01/22 06:00:37;;;;;;;33.02;11.95;;;;;;;0.77;82.82;97361.24;2268318;77;21260;-63
2021/01/22 06:03:38;;;;;;;31.40;11.33;;;;;;;0.74;82.78;97354.94;2274892;77;21282;-63
2021/01/22 06:06:39;;;;;;;29.20;10.90;;;;;;;0.71;82.77;97367.52;2265637;77;21345;-63
2021/01/22 06:09:41;;;;;;;27.25;10.35;;;;;;;0.69;82.77;97370.63;2314692;76;21145;-64
2021/01/22 06:12:42;;;;;;;28.17;10.88;;;;;;;0.71;82.89;97367.52;2314624;76;21266;-65
2021/01/22 06:15:43;;;;;;;30.57;12.07;;;;;;;0.73;83.00;97363.58;2307402;76;21135;-65
2021/01/22 06:18:44;;;;;;;33.98;13.80;;;;;;;0.72;83.15;97360.59;2284261;76;21723;-64
2021/01/22 06:21:45;;;;;;;38.55;13.78;;;;;;;0.71;83.02;97359.77;2301550;76;21260;-64
2021/01/22 06:24:47;;;;;;;36.25;14.00;;;;;;;0.73;83.19;97358.41;2307434;76;21257;-63
2021/01/22 06:27:48;;;;;;;37.55;14.60;;;;;;;0.73;83.39;97366.98;2276409;77;21689;-64
2021/01/22 06:30:49;;;;;;;35.20;13.75;;;;;;;0.77;83.28;97362.07;2287782;77;21293;-64
2021/01/22 06:33:50;;;;;;;38.80;14.58;;;;;;;0.80;83.21;97360.64;2274791;77;21606;-64
2021/01/22 06:36:51;;;;;;;35.65;14.03;;;;;;;0.84;83.26;97355.72;2285863;77;21280;-63
2021/01/22 06:39:52;;;;;;;35.78;13.35;;;;;;;0.85;83.41;97356.13;2266882;77;21724;-64
2021/01/22 06:42:54;;;;;;;30.75;11.70;;;;;;;0.88;83.40;97349.98;2279155;77;21811;-64
2021/01/22 06:45:55;;;;;;;34.53;12.93;;;;;;;0.93;83.49;97345.43;2274389;78;21268;-65
2021/01/22 06:48:56;;;;;;;31.57;13.15;;;;;;;1.01;83.24;97343.81;2255643;77;21308;-64
2021/01/22 06:51:57;;;;;;;33.67;13.25;;;;;;;1.10;83.23;97345.12;2257751;77;21739;-67
2021/01/22 06:54:59;;;;;;;35.23;14.20;;;;;;;1.18;83.52;97345.62;2267373;77;21626;-67
2021/01/22 06:58:00;;;;;;;33.53;11.88;;;;;;;1.26;83.25;97346.08;2284219;77;21276;-66
2021/01/22 07:01:01;;;;;;;30.95;11.30;;;;;;;1.35;83.09;97347.38;2316830;76;21278;-64
2021/01/22 07:04:05;;;;;;;31.77;11.15;;;;;;;1.44;83.08;97343.09;2272920;78;21110;-64
2021/01/22 07:07:06;;;;;;;31.02;11.40;;;;;;;1.56;82.96;97346.36;2261157;77;21308;-66
2021/01/22 07:10:09;;;;;;;;;;;;;;;1.67;82.77;97341.97;2277583;77;21716;-64
2021/01/22 07:13:10;;;;;;;30.05;11.73;;;;;;;1.75;82.61;97335.59;2274031;77;20223;-65
2021/01/22 07:16:11;;;;;;;33.50;12.13;;;;;;;1.82;82.40;97336.97;2257556;77;21308;-67
2021/01/22 07:19:12;;;;;;;30.90;11.12;;;;;;;1.89;82.25;97331.87;2264245;77;21292;-64
2021/01/22 07:22:14;;;;;;;32.00;11.90;;;;;;;1.91;82.16;97331.32;2256282;78;21759;-63
2021/01/22 07:25:15;;;;;;;31.00;11.05;;;;;;;1.96;81.97;97325.48;2268518;77;21681;-64
2021/01/22 07:28:16;;;;;;;30.75;11.50;;;;;;;2.02;81.80;97329.51;2275595;77;21284;-64
2021/01/22 07:31:17;;;;;;;33.90;12.13;;;;;;;2.07;81.65;97329.66;2280820;77;21283;-66
2021/01/22 07:34:18;;;;;;;31.50;11.88;;;;;;;2.17;81.49;97333.91;2274206;77;21275;-63
2021/01/22 07:37:19;;;;;;;31.73;11.78;;;;;;;2.27;81.34;97332.14;2260881;77;21725;-64
2021/01/22 07:40:21;;;;;;;29.60;11.78;;;;;;;2.31;81.13;97328.48;2265954;77;21297;-63
2021/01/22 07:43:22;;;;;;;35.95;12.45;;;;;;;2.34;81.07;97335.65;2271471;77;21103;-64
2021/01/22 07:46:23;;;;;;;29.75;11.55;;;;;;;2.40;80.95;97331.91;2308047;76;21276;-64
2021/01/22 07:49:24;;;;;;;28.45;10.70;;;;;;;2.46;80.85;97322.96;2301686;76;21264;-65
2021/01/22 07:52:25;;;;;;;28.98;11.08;;;;;;;2.53;80.75;97320.42;2305907;76;21281;-66
2021/01/22 07:55:27;;;;;;;29.90;11.48;;;;;;;2.63;80.60;97323.38;2286725;77;21701;-65
2021/01/22 07:58:30;;;;;;;29.42;11.35;;;;;;;2.72;80.34;97315.96;2270651;78;21558;-64
2021/01/22 08:01:31;;;;;;;30.00;11.48;;;;;;;2.83;80.29;97308.93;2253501;77;21269;-65
2021/01/22 08:04:33;;;;;;;33.58;11.50;;;;;;;2.90;80.07;97306.83;2272257;77;21285;-64
2021/01/22 08:07:34;;;;;;;;;;;;;;;2.97;79.97;97302.16;2259919;78;21273;-63
2021/01/22 08:10:36;;;;;;;43.78;22.10;;;;;;;3.03;79.85;97305.26;2289874;77;20405;-67
2021/01/22 08:13:37;;;;;;;37.88;18.20;;;;;;;3.09;79.48;97304.91;2283351;78;21253;-64
2021/01/22 08:16:39;;;;;;;33.08;13.40;;;;;;;3.19;79.68;97307.84;2314429;76;21736;-64
2021/01/22 08:19:40;;;;;;;30.37;11.95;;;;;;;3.30;79.42;97307.23;2308197;76;21285;-68
2021/01/22 08:22:41;;;;;;;31.48;12.05;;;;;;;3.42;79.12;97306.55;2286665;77;21744;-66
2021/01/22 08:25:42;;;;;;;32.50;12.63;;;;;;;3.60;79.16;97307.72;2286401;77;21285;-66
2021/01/22 08:28:45;;;;;;;34.03;12.88;;;;;;;3.76;78.87;97310.27;2281844;77;21126;-64
2021/01/22 08:31:46;;;;;;;;;;;;;;;3.93;78.33;97300.22;2262606;77;21708;-64
2021/01/22 08:34:47;;;;;;;34.35;12.30;;;;;;;4.08;78.30;97300.63;2285693;78;20143;-64
2021/01/22 08:37:49;;;;;;;33.45;13.15;;;;;;;4.21;77.75;97295.55;2279117;77;21285;-64
2021/01/22 08:40:50;;;;;;;32.98;13.58;;;;;;;4.33;77.66;97296.09;2283682;78;21721;-65
2021/01/22 08:43:51;;;;;;;37.42;13.78;;;;;;;4.44;77.61;97291.56;2315589;77;21171;-68
2021/01/22 08:46:54;;;;;;;35.10;13.30;;;;;;;4.54;76.93;97294.45;2279035;77;21129;-68
2021/01/22 08:49:55;;;;;;;33.00;12.25;;;;;;;4.71;77.33;97281.70;2280925;78;21293;-65
2021/01/22 08:52:56;;;;;;;31.65;12.40;;;;;;;4.98;76.33;97282.22;2247884;77;21261;-69
2021/01/22 08:55:57;;;;;;;31.52;12.65;;;;;;;5.24;76.62;97282.34;2271571;77;21720;-66
2021/01/22 08:58:58;;;;;;;32.40;12.58;;;;;;;5.52;76.25;97293.10;2270885;77;21275;-65
2021/01/22 09:02:00;;;;;;;31.60;11.97;;;;;;;5.69;75.40;97289.41;2261946;77;21146;-66
2021/01/22 09:05:02;;;;;;;29.92;12.23;;;;;;;5.78;74.55;97299.20;2269317;77;21286;-68
2021/01/22 09:08:03;;;;;;;33.75;12.78;;;;;;;5.96;74.30;97290.65;2250805;77;21207;-69
2021/01/22 09:11:04;;;;;;;32.95;12.18;;;;;;;6.15;73.96;97288.12;2271553;77;21264;-65
2021/01/22 09:14:06;;;;;;;29.95;11.78;;;;;;;6.32;74.12;97285.68;2270624;77;21247;-67
2021/01/22 09:17:07;;;;;;;29.82;11.40;;;;;;;6.47;74.02;97284.64;2316550;77;21564;-65
2021/01/22 09:20:08;;;;;;;30.40;11.73;;;;;;;6.57;72.86;97283.54;2279893;77;21271;-68
2021/01/22 09:23:11;;;;;;;31.75;12.10;;;;;;;6.67;73.18;97296.77;2275567;77;21277;-68
2021/01/22 09:26:13;;;;;;;31.62;12.37;;;;;;;6.72;72.52;97285.53;2282499;77;21268;-66
2021/01/22 09:29:14;;;;;;;28.25;11.15;;;;;;;6.86;73.53;97288.00;2267564;77;21744;-67
2021/01/22 09:32:15;;;;;;;29.20;11.43;;;;;;;7.00;72.78;97274.48;2246329;78;21280;-66
2021/01/22 09:35:16;;;;;;;31.77;11.95;;;;;;;7.12;72.45;97268.38;2262608;77;21248;-64
2021/01/22 09:38:17;;;;;;;27.87;11.50;;;;;;;7.13;72.17;97266.14;2288514;77;21717;-66
2021/01/22 09:41:19;;;;;;;28.87;11.12;;;;;;;7.23;71.98;97271.05;2274398;77;21296;-65
2021/01/22 09:44:20;;;;;;;32.98;11.95;;;;;;;7.32;71.93;97271.34;2262484;77;21253;-65
2021/01/22 09:47:21;;;;;;;30.40;11.53;;;;;;;7.40;71.01;97272.92;2250827;77;21700;-65
2021/01/22 09:50:22;;;;;;;33.25;12.95;;;;;;;7.48;71.57;97273.17;2274610;77;21278;-68
2021/01/22 09:53:24;;;;;;;31.12;13.20;;;;;;;7.57;71.88;97265.14;2263300;77;21260;-67
2021/01/22 09:56:25;;;;;;;32.33;12.87;;;;;;;7.69;71.42;97268.65;2279433;77;21261;-65
2021/01/22 09:59:28;;;;;;;35.03;12.58;;;;;;;7.78;70.00;97272.69;2280945;78;21296;-63
2021/01/22 10:02:30;;;;;;;31.00;12.25;;;;;;;7.84;71.64;97265.36;2262194;77;21721;-65
2021/01/22 10:05:31;;;;;;;33.28;12.35;;;;;;;7.86;70.29;97261.70;2282166;77;21279;-67
2021/01/22 10:08:32;;;;;;;30.77;12.13;;;;;;;7.77;70.66;97255.84;2271125;77;21276;-64
2021/01/22 10:11:33;;;;;;;33.58;13.22;;;;;;;7.79;71.11;97252.66;2286891;77;21280;-64
2021/01/22 10:14:34;;;;;;;33.10;13.90;;;;;;;7.90;70.90;97244.86;2302852;76;21272;-63
2021/01/22 10:17:36;;;;;;;36.03;14.30;;;;;;;8.22;70.58;97242.88;2301511;76;21692;-64
2021/01/22 10:20:37;;;;;;;35.15;13.48;;;;;;;8.38;69.01;97246.94;2305678;76;21277;-64
2021/01/22 10:23:38;;;;;;;38.02;14.13;;;;;;;8.43;69.23;97240.41;2278902;77;21316;-65
2021/01/22 10:26:39;;;;;;;32.53;13.08;;;;;;;8.51;68.71;97233.78;2274791;77;21270;-65
2021/01/22 10:29:41;;;;;;;36.42;14.58;;;;;;;8.59;68.97;97234.84;2260350;77;21261;-64
2021/01/22 10:32:42;;;;;;;33.40;13.25;;;;;;;8.77;68.97;97237.78;2265217;77;21139;-64
2021/01/22 10:35:43;;;;;;;33.25;12.98;;;;;;;8.91;68.72;97240.62;2284298;78;21254;-64
2021/01/22 10:38:44;;;;;;;32.38;12.13;;;;;;;9.03;68.31;97245.83;2309441;76;21375;-64
2021/01/22 10:41:46;;;;;;;35.08;13.95;;;;;;;9.16;67.71;97248.63;2304645;76;21269;-63
2021/01/22 10:44:47;;;;;;;38.30;14.13;;;;;;;9.31;67.33;97241.34;2277118;77;21331;-64
2021/01/22 10:47:48;;;;;;;37.03;14.53;;;;;;;9.45;67.68;97245.92;2260482;77;21578;-64
2021/01/22 10:50:50;;;;;;;35.30;13.70;;;;;;;9.61;67.30;97246.34;2260380;77;21360;-64
2021/01/22 10:53:52;;;;;;;;;;;;;;;9.73;67.06;97232.72;2271872;77;21257;-64
2021/01/22 10:56:53;;;;;;;41.35;13.45;;;;;;;9.98;66.03;97223.62;2272843;77;20481;-64
2021/01/22 10:59:54;;;;;;;51.92;15.48;;;;;;;9.91;65.95;97219.86;2264846;77;21298;-64
2021/01/22 11:02:56;;;;;;;35.43;12.80;;;;;;;9.54;65.48;97223.77;2278020;77;21586;-63
2021/01/22 11:05:57;;;;;;;40.43;13.62;;;;;;;9.25;66.59;97228.77;2310898;76;21272;-63
2021/01/22 11:08:58;;;;;;;34.58;13.58;;;;;;;9.09;67.17;97229.15;2264421;77;21280;-63
2021/01/22 11:11:59;;;;;;;33.98;13.55;;;;;;;9.17;67.58;97232.47;2269704;77;21170;-63
2021/01/22 11:15:00;;;;;;;33.00;13.30;;;;;;;9.64;67.42;97230.38;2264402;78;21602;-64
2021/01/22 11:18:02;;;;;;;32.60;13.10;;;;;;;10.26;66.90;97227.86;2279022;77;21555;-64
2021/01/22 11:21:03;;;;;;;35.73;13.53;;;;;;;10.68;65.51;97218.59;2242637;77;21114;-65
2021/01/22 11:24:05;;;;;;;34.63;12.85;;;;;;;10.95;64.87;97215.84;2270270;77;21276;-63
2021/01/22 11:27:06;;;;;;;36.90;12.88;;;;;;;11.01;63.32;97201.35;2316458;76;21253;-64
2021/01/22 11:30:08;;;;;;;37.30;15.45;;;;;;;11.12;63.00;97205.63;2251133;77;21252;-63
2021/01/22 11:33:10;;;;;;;39.20;13.83;;;;;;;11.18;63.47;97211.17;2291318;77;21724;-63
2021/01/22 11:36:11;;;;;;;32.17;12.07;;;;;;;11.13;63.95;97203.36;2257749;78;21270;-64
2021/01/22 11:39:12;;;;;;;29.90;12.05;;;;;;;11.06;63.83;97197.36;2276941;77;21285;-63
2021/01/22 11:42:13;;;;;;;30.35;11.50;;;;;;;10.87;62.49;97199.94;2250747;77;21269;-64
2021/01/22 11:45:15;;;;;;;32.53;12.25;;;;;;;10.59;63.58;97199.74;2282953;77;21154;-63
2021/01/22 11:48:16;;;;;;;36.40;13.25;;;;;;;10.43;63.69;97205.48;2280622;78;21697;-63
2021/01/22 11:51:18;;;;;;;37.95;14.60;;;;;;;10.25;64.27;97202.61;2270243;78;21688;-63
2021/01/22 11:54:20;;;;;;;42.33;18.52;;;;;;;10.06;64.39;97201.55;2251342;77;21114;-66
2021/01/22 11:57:21;;;;;;;39.10;16.30;;;;;;;10.00;64.56;97196.84;2269468;77;21317;-64
2021/01/22 12:00:23;;;;;;;34.78;14.10;;;;;;;9.99;64.89;97195.66;2263707;77;21257;-63
2021/01/22 12:03:25;;;;;;;;;;;;;;;10.04;64.47;97193.47;2319920;76;21570;-63
2021/01/22 12:06:26;;;;;;;31.95;11.88;;;;;;;10.04;64.66;97192.16;2311593;76;20217;-63
2021/01/22 12:09:27;;;;;;;34.48;12.82;;;;;;;10.01;64.10;97191.11;2277857;77;21293;-63
2021/01/22 12:12:29;;;;;;;32.38;12.70;;;;;;;9.87;64.17;97185.26;2279425;77;21138;-63
2021/01/22 12:15:33;;;;;;;32.55;12.37;;;;;;;9.71;64.30;97181.80;2259768;77;21601;-63
2021/01/22 12:18:34;;;;;;;35.28;13.32;;;;;;;9.61;64.39;97185.29;2266467;77;21265;-63
2021/01/22 12:21:36;;;;;;;34.20;13.20;;;;;;;9.58;65.11;97183.75;2303180;76;21130;-64
2021/01/22 12:24:38;;;;;;;30.32;12.25;;;;;;;9.62;64.20;97192.19;2254390;77;21124;-63
2021/01/22 12:27:39;;;;;;;32.35;11.75;;;;;;;9.61;64.93;97195.30;2265084;77;21570;-63
2021/01/22 12:30:40;;;;;;;30.57;11.05;;;;;;;9.57;64.03;97191.73;2252930;77;21808;-63
2021/01/22 12:33:41;;;;;;;33.92;13.03;;;;;;;9.48;64.90;97195.48;2250738;77;21696;-63
2021/01/22 12:36:43;;;;;;;37.50;15.55;;;;;;;9.36;64.06;97189.45;2280771;77;21155;-63
2021/01/22 12:39:44;;;;;;;39.00;16.47;;;;;;;9.18;64.87;97197.03;2286283;78;21272;-63
2021/01/22 12:42:46;;;;;;;38.88;15.03;;;;;;;9.05;65.32;97195.52;2315974;76;21258;-63
2021/01/22 12:45:47;;;;;;;38.28;16.02;;;;;;;8.93;65.75;97198.17;2262099;78;21288;-63
2021/01/22 12:48:48;;;;;;;36.70;14.20;;;;;;;8.83;65.79;97193.33;2278639;77;21272;-63
2021/01/22 12:51:49;;;;;;;37.60;14.53;;;;;;;8.72;66.08;97194.66;2267940;77;21268;-63
2021/01/22 12:54:51;;;;;;;34.63;13.15;;;;;;;8.61;66.20;97198.13;2278824;77;21733;-63
2021/01/22 12:57:52;;;;;;;36.60;14.30;;;;;;;8.52;66.46;97204.06;2313008;76;21274;-63
2021/01/22 13:00:53;;;;;;;39.13;14.18;;;;;;;8.41;66.56;97210.94;2265948;77;21292;-63
2021/01/22 13:03:54;;;;;;;44.63;20.48;;;;;;;8.31;66.86;97208.20;2285569;77;21709;-63
2021/01/22 13:06:55;;;;;;;36.93;15.13;;;;;;;8.22;67.06;97202.88;2282993;77;21279;-64
2021/01/22 13:09:56;;;;;;;33.28;11.05;;;;;;;8.09;67.33;97207.73;2263068;77;21273;-63
2021/01/22 13:12:58;;;;;;;34.80;12.00;;;;;;;8.00;67.61;97210.20;2278521;77;21233;-65
2021/01/22 13:15:59;;;;;;;44.15;16.95;;;;;;;7.90;67.85;97208.31;2260481;77;21305;-63
2021/01/22 13:19:00;;;;;;;30.52;8.88;;;;;;;7.85;68.08;97214.83;2256748;77;21753;-64
2021/01/22 13:22:01;;;;;;;38.28;11.33;;;;;;;7.80;68.30;97214.70;2271962;77;21690;-63
2021/01/22 13:25:03;;;;;;;35.65;11.05;;;;;;;7.76;68.32;97215.05;2282170;77;21300;-63
2021/01/22 13:28:05;;;;;;;34.75;11.63;;;;;;;7.71;68.45;97217.16;2314834;76;21100;-63
2021/01/22 13:31:07;;;;;;;42.25;16.15;;;;;;;7.69;68.49;97222.98;2253391;78;21720;-64
2021/01/22 13:34:08;;;;;;;35.15;12.65;;;;;;;7.60;68.66;97218.80;2257378;78;21252;-63
2021/01/22 13:37:09;;;;;;;36.38;13.45;;;;;;;7.54;68.76;97221.88;2260114;77;21265;-64
2021/01/22 13:40:15;;;;;;;32.55;11.63;;;;;;;7.48;68.89;97222.30;2260184;77;21706;-64
2021/01/22 13:43:14;;;;;;;38.80;15.40;;;;;;;7.40;68.97;97230.70;2259481;78;21696;-64
2021/01/22 13:46:15;;;;;;;40.17;15.85;;;;;;;7.32;69.13;97226.52;2280068;77;21269;-62
2021/01/22 13:49:16;;;;;;;39.35;13.05;;;;;;;7.23;69.48;97231.94;2269331;77;21302;-63
2021/01/22 13:52:17;;;;;;;37.08;14.28;;;;;;;7.13;69.61;97230.94;2273417;77;21273;-62
2021/01/22 13:55:19;;;;;;;37.10;14.23;;;;;;;7.03;70.18;97237.28;2255511;78;21693;-62
2021/01/22 13:58:20;;;;;;;27.60;8.83;;;;;;;6.96;70.98;97232.63;2306628;76;21256;-62
2021/01/22 14:01:21;;;;;;;32.58;10.98;;;;;;;6.92;71.62;97241.98;2285593;78;21336;-63